createdAt,value
2018-04-28T00:00:29.587Z,14.85
2018-04-28T00:02:59.703Z,14.95
2018-04-28T00:05:29.011Z,14.83
2018-04-28T00:07:58.354Z,14.83
2018-04-28T00:10:27.685Z,14.82
2018-04-28T00:12:57.002Z,14.79
2018-04-28T00:15:27.071Z,14.73
2018-04-28T00:17:57.329Z,14.76
2018-04-28T00:20:26.659Z,14.80
2018-04-28T00:23:04.063Z,14.84
2018-04-28T00:28:48.262Z,14.73
2018-04-28T00:31:35.742Z,14.74
2018-04-28T00:34:07.237Z,14.74
2018-04-28T00:39:57.546Z,14.82
2018-04-28T00:42:34.310Z,14.88
2018-04-28T00:45:15.255Z,14.94
2018-04-28T00:47:46.847Z,14.97
2018-04-28T00:50:36.952Z,15.00
2018-04-28T00:53:06.282Z,15.00
2018-04-28T00:55:36.397Z,14.94
2018-04-28T00:58:18.430Z,14.88
2018-04-28T01:00:52.695Z,14.78
2018-04-28T01:06:20.840Z,14.78
2018-04-28T01:08:50.173Z,14.69
2018-04-28T01:11:38.065Z,14.62
2018-04-28T01:14:13.163Z,14.64
2018-04-28T01:16:56.513Z,14.56
2018-04-28T01:19:31.396Z,14.57
2018-04-28T01:22:01.478Z,14.51
2018-04-28T01:24:52.354Z,14.49
2018-04-28T01:27:36.164Z,14.47
2018-04-28T01:33:48.459Z,14.37
2018-04-28T01:39:48.265Z,14.31
2018-04-28T01:42:20.419Z,14.22
2018-04-28T01:48:28.955Z,14.17
2018-04-28T01:51:21.349Z,14.14
2018-04-28T01:57:24.033Z,14.04
2018-04-28T02:00:06.839Z,14.06
2018-04-28T02:02:43.519Z,14.02
2018-04-28T02:08:17.921Z,14.00
2018-04-28T02:10:54.978Z,13.94
2018-04-28T02:13:36.269Z,13.88
2018-04-28T02:16:20.229Z,13.83
2018-04-28T02:18:57.119Z,13.79
2018-04-28T02:24:48.022Z,13.76
2018-04-28T02:30:19.586Z,13.77
2018-04-28T02:33:07.163Z,13.73
2018-04-28T02:35:41.533Z,13.69
2018-04-28T02:38:24.067Z,13.60
2018-04-28T02:47:20.729Z,13.47
2018-04-28T02:50:11.591Z,13.50
2018-04-28T02:52:47.174Z,13.44
2018-04-28T02:58:28.047Z,13.49
2018-04-28T03:01:08.612Z,13.44
2018-04-28T03:03:50.012Z,13.38
2018-04-28T03:06:38.696Z,13.35
2018-04-28T03:09:08.741Z,13.46
2018-04-28T03:11:52.912Z,13.44
2018-04-28T03:14:22.231Z,13.31
2018-04-28T03:17:08.835Z,13.32
2018-04-28T03:19:44.762Z,13.30
2018-04-28T03:22:15.673Z,13.21
2018-04-28T03:24:51.266Z,13.22
2018-04-28T03:30:49.947Z,13.10
2018-04-28T03:33:33.955Z,13.03
2018-04-28T03:39:13.225Z,13.05
2018-04-28T03:41:57.490Z,13.06
2018-04-28T03:44:33.194Z,13.00
2018-04-28T03:50:13.455Z,12.93
2018-04-28T03:52:53.306Z,12.94
2018-04-28T03:55:24.305Z,12.90
2018-04-28T03:58:11.308Z,12.83
2018-04-28T04:00:58.545Z,12.76
2018-04-28T04:03:27.874Z,12.72
2018-04-28T04:06:19.960Z,12.75
2018-04-28T04:08:54.679Z,12.79
2018-04-28T04:11:31.328Z,12.75
2018-04-28T04:14:15.102Z,12.79
2018-04-28T04:20:09.106Z,12.71
2018-04-28T04:26:27.335Z,12.75
2018-04-28T04:32:31.682Z,12.77
2018-04-28T04:35:08.358Z,12.92
2018-04-28T04:38:03.103Z,12.78
2018-04-28T04:40:34.770Z,12.79
2018-04-28T04:43:11.184Z,12.85
2018-04-28T04:48:56.218Z,12.91
2018-04-28T04:51:29.663Z,12.88
2018-04-28T04:57:33.705Z,12.90
2018-04-28T05:00:24.082Z,12.88
2018-04-28T05:02:59.975Z,12.95
2018-04-28T05:05:51.456Z,13.04
2018-04-28T05:15:00.975Z,13.04
2018-04-28T05:20:44.428Z,13.24
2018-04-28T05:29:48.536Z,13.29
2018-04-28T05:39:01.417Z,13.35
2018-04-28T05:44:50.890Z,13.58
2018-04-28T05:47:28.959Z,13.66
2018-04-28T05:50:30.635Z,13.60
2018-04-28T05:53:23.567Z,13.70
2018-04-28T05:59:22.308Z,13.69
2018-04-28T06:02:07.269Z,13.81
2018-04-28T06:08:02.697Z,13.98
2018-04-28T06:10:54.618Z,14.09
2018-04-28T06:13:55.537Z,14.12
2018-04-28T06:20:04.713Z,14.35
2018-04-28T06:22:33.939Z,14.52
2018-04-28T06:25:03.310Z,14.54
2018-04-28T06:27:33.363Z,14.58
2018-04-28T06:30:02.692Z,14.62
2018-04-28T06:32:31.984Z,14.66
2018-04-28T06:35:01.277Z,14.58
2018-04-28T06:37:30.592Z,14.69
2018-04-28T06:40:00.043Z,14.56
2018-04-28T06:42:30.216Z,14.64
2018-04-28T06:44:59.524Z,14.68
2018-04-28T06:47:28.856Z,14.68
2018-04-28T06:49:58.989Z,14.78
2018-04-28T06:52:28.302Z,14.90
2018-04-28T06:54:57.610Z,14.84
2018-04-28T06:57:26.920Z,14.78
2018-04-28T06:59:56.274Z,14.70
2018-04-28T07:02:25.604Z,14.70
2018-04-28T07:04:54.910Z,14.79
2018-04-28T07:07:24.260Z,14.80
2018-04-28T07:09:53.584Z,14.73
2018-04-28T07:12:23.681Z,14.77
2018-04-28T07:14:52.996Z,14.96
2018-04-28T07:17:22.417Z,14.89
2018-04-28T07:19:52.484Z,14.99
2018-04-28T07:22:21.794Z,15.07
2018-04-28T07:24:51.136Z,15.05
2018-04-28T07:27:20.448Z,15.00
2018-04-28T07:29:50.533Z,14.95
2018-04-28T07:32:19.846Z,14.93
2018-04-28T07:34:49.217Z,14.91
2018-04-28T07:37:18.545Z,14.93
2018-04-28T07:39:47.945Z,15.07
2018-04-28T07:42:17.288Z,15.03
2018-04-28T07:44:47.373Z,14.93
2018-04-28T07:47:16.668Z,15.06
2018-04-28T07:49:46.009Z,15.03
2018-04-28T07:52:16.065Z,14.86
2018-04-28T07:54:45.409Z,14.91
2018-04-28T07:57:14.739Z,15.02
2018-04-28T07:59:44.819Z,15.15
2018-04-28T08:02:14.279Z,15.13
2018-04-28T08:04:43.583Z,15.09
2018-04-28T08:07:12.908Z,15.21
2018-04-28T08:09:42.321Z,15.44
2018-04-28T08:12:12.203Z,15.63
2018-04-28T08:14:42.594Z,15.73
2018-04-28T08:17:12.216Z,15.78
2018-04-28T08:19:41.938Z,15.81
2018-04-28T08:22:12.067Z,15.84
2018-04-28T08:24:42.768Z,15.75
2018-04-28T08:27:12.094Z,15.44
2018-04-28T08:29:42.205Z,15.41
2018-04-28T08:32:11.524Z,15.68
2018-04-28T08:34:41.540Z,15.71
2018-04-28T08:37:10.993Z,15.96
2018-04-28T08:39:40.233Z,15.95
2018-04-28T08:42:10.326Z,16.14
2018-04-28T08:44:39.679Z,16.42
2018-04-28T08:47:10.155Z,16.73
2018-04-28T08:49:39.484Z,16.75
2018-04-28T08:52:08.786Z,16.58
2018-04-28T08:54:38.106Z,16.80
2018-04-28T08:57:08.196Z,16.50
2018-04-28T08:59:55.336Z,17.02
2018-04-28T09:02:25.430Z,17.29
2018-04-28T09:04:54.736Z,17.01
2018-04-28T09:07:40.015Z,17.05
2018-04-28T09:10:09.363Z,17.54
2018-04-28T09:12:38.674Z,17.76
2018-04-28T09:15:07.987Z,17.72
2018-04-28T09:17:37.318Z,17.08
2018-04-28T09:20:06.610Z,17.51
2018-04-28T09:22:35.921Z,17.53
2018-04-28T09:25:05.290Z,17.81
2018-04-28T09:27:34.599Z,17.53
2018-04-28T09:30:03.939Z,18.08
2018-04-28T09:32:33.278Z,17.86
2018-04-28T09:35:02.595Z,17.89
2018-04-28T09:37:31.921Z,18.32
2018-04-28T09:40:01.261Z,18.51
2018-04-28T09:42:30.871Z,19.14
2018-04-28T09:45:00.194Z,19.56
2018-04-28T09:47:30.288Z,19.66
2018-04-28T09:49:59.620Z,20.14
2018-04-28T09:52:29.700Z,19.12
2018-04-28T09:54:59.029Z,18.73
2018-04-28T09:57:29.115Z,18.65
2018-04-28T10:00:10.438Z,18.32
2018-04-28T10:02:41.698Z,18.13
2018-04-28T10:05:11.769Z,18.02
2018-04-28T10:07:41.058Z,17.86
2018-04-28T10:10:10.396Z,17.92
2018-04-28T10:12:39.719Z,18.18
2018-04-28T10:15:09.010Z,18.34
2018-04-28T10:17:39.117Z,18.74
2018-04-28T10:20:08.637Z,18.35
2018-04-28T10:22:37.942Z,17.87
2018-04-28T10:25:08.026Z,17.86
2018-04-28T10:27:37.353Z,17.72
2018-04-28T10:30:06.666Z,17.88
2018-04-28T10:32:36.746Z,18.35
2018-04-28T10:35:06.047Z,18.15
2018-04-28T10:37:35.374Z,18.27
2018-04-28T10:40:04.675Z,17.81
2018-04-28T10:42:33.972Z,18.07
2018-04-28T10:45:03.295Z,18.09
2018-04-28T10:47:32.622Z,18.01
2018-04-28T10:50:01.940Z,18.22
2018-04-28T10:52:31.241Z,18.11
2018-04-28T10:55:00.551Z,18.10
2018-04-28T10:57:29.891Z,17.86
2018-04-28T10:59:59.192Z,17.82
2018-04-28T11:02:28.518Z,17.88
2018-04-28T11:04:58.591Z,17.63
2018-04-28T11:07:27.922Z,17.26
2018-04-28T11:09:57.223Z,17.46
2018-04-28T11:12:26.557Z,17.38
2018-04-28T11:14:56.610Z,17.28
2018-04-28T11:17:25.932Z,17.16
2018-04-28T11:19:55.305Z,16.99
2018-04-28T11:22:25.360Z,16.82
2018-04-28T11:24:54.663Z,16.83
2018-04-28T11:27:23.984Z,17.05
2018-04-28T11:29:53.286Z,16.99
2018-04-28T11:32:22.815Z,17.06
2018-04-28T11:34:52.887Z,17.15
2018-04-28T11:37:22.194Z,17.65
2018-04-28T11:39:51.510Z,17.89
2018-04-28T11:42:21.818Z,18.34
2018-04-28T11:44:51.894Z,18.25
2018-04-28T11:47:21.219Z,18.16
2018-04-28T11:49:50.522Z,17.75
2018-04-28T11:52:19.822Z,17.88
2018-04-28T11:54:49.152Z,17.95
2018-04-28T11:57:18.491Z,18.16
2018-04-28T11:59:48.545Z,18.13
2018-04-28T12:02:17.853Z,18.01
2018-04-28T12:04:47.195Z,17.88
2018-04-28T12:07:16.494Z,18.01
2018-04-28T12:09:45.796Z,18.04
2018-04-28T12:12:15.146Z,17.87
2018-04-28T12:14:44.446Z,17.99
2018-04-28T12:17:13.779Z,17.97
2018-04-28T12:19:43.100Z,17.85
2018-04-28T12:22:12.399Z,17.86
2018-04-28T12:24:41.719Z,17.57
2018-04-28T12:27:11.202Z,17.60
2018-04-28T12:29:40.550Z,17.97
2018-04-28T12:32:10.608Z,18.21
2018-04-28T12:34:39.935Z,18.50
2018-04-28T12:37:09.239Z,18.76
2018-04-28T12:39:38.554Z,18.80
2018-04-28T12:42:07.883Z,18.72
2018-04-28T12:44:37.984Z,19.03
2018-04-28T12:47:07.322Z,18.98
2018-04-28T12:49:36.635Z,19.09
2018-04-28T12:52:05.976Z,19.06
2018-04-28T12:54:35.299Z,19.15
2018-04-28T12:57:04.621Z,19.28
2018-04-28T12:59:33.948Z,19.30
2018-04-28T13:02:03.261Z,19.51
2018-04-28T13:04:32.571Z,19.74
2018-04-28T13:07:01.874Z,19.83
2018-04-28T13:09:31.226Z,19.73
2018-04-28T13:12:01.302Z,19.75
2018-04-28T13:14:30.597Z,19.45
2018-04-28T13:16:59.917Z,19.30
2018-04-28T13:19:29.225Z,19.18
2018-04-28T13:21:58.523Z,19.50
2018-04-28T13:24:27.846Z,19.31
2018-04-28T13:26:57.919Z,19.38
2018-04-28T13:29:27.237Z,19.54
2018-04-28T13:31:56.536Z,19.30
2018-04-28T13:34:27.172Z,19.08
2018-04-28T13:36:56.470Z,18.82
2018-04-28T13:39:25.770Z,18.80
2018-04-28T13:41:55.094Z,18.73
2018-04-28T13:44:24.518Z,18.89
2018-04-28T13:46:53.823Z,18.81
2018-04-28T13:49:23.913Z,18.61
2018-04-28T13:51:53.263Z,18.58
2018-04-28T13:54:23.320Z,18.82
2018-04-28T13:56:52.669Z,19.07
2018-04-28T13:59:22.766Z,19.44
2018-04-28T14:01:52.063Z,19.49
2018-04-28T14:04:21.358Z,19.60
2018-04-28T14:06:50.688Z,19.59
2018-04-28T14:09:19.999Z,19.67
2018-04-28T14:11:50.115Z,19.47
2018-04-28T14:14:19.449Z,19.55
2018-04-28T14:16:48.778Z,19.35
2018-04-28T14:19:18.070Z,19.19
2018-04-28T14:24:30.907Z,19.17
2018-04-28T14:27:00.262Z,19.13
2018-04-28T14:29:29.527Z,19.24
2018-04-28T14:31:58.840Z,19.20
2018-04-28T14:34:28.166Z,19.04
2018-04-28T14:36:58.281Z,19.24
2018-04-28T14:39:27.699Z,19.36
2018-04-28T14:41:56.942Z,19.64
2018-04-28T14:44:26.467Z,19.94
2018-04-28T14:46:55.770Z,19.97
2018-04-28T14:49:25.098Z,20.08
2018-04-28T14:51:54.443Z,20.01
2018-04-28T14:54:23.753Z,20.05
2018-04-28T14:56:53.043Z,19.97
2018-04-28T14:59:22.371Z,19.70
2018-04-28T15:01:51.681Z,20.06
2018-04-28T15:04:21.023Z,20.14
2018-04-28T15:06:51.135Z,20.15
2018-04-28T15:09:20.437Z,20.00
2018-04-28T15:11:49.761Z,19.78
2018-04-28T15:14:19.870Z,19.41
2018-04-28T15:16:49.201Z,19.39
2018-04-28T15:19:18.502Z,19.44
2018-04-28T15:21:47.835Z,19.38
2018-04-28T15:24:17.131Z,19.31
2018-04-28T15:26:46.440Z,19.23
2018-04-28T15:29:15.787Z,18.81
2018-04-28T15:31:45.088Z,18.81
2018-04-28T15:34:15.179Z,18.72
2018-04-28T15:36:44.511Z,18.41
2018-04-28T15:39:14.591Z,18.51
2018-04-28T15:41:43.902Z,18.45
2018-04-28T15:44:13.277Z,18.49
2018-04-28T15:46:42.632Z,18.54
2018-04-28T15:49:12.131Z,18.48
2018-04-28T15:51:41.457Z,18.47
2018-04-28T15:54:11.548Z,18.34
2018-04-28T15:56:40.837Z,18.38
2018-04-28T15:59:10.950Z,18.39
2018-04-28T16:01:40.298Z,18.23
2018-04-28T16:04:09.627Z,18.28
2018-04-28T16:06:38.923Z,18.25
2018-04-28T16:09:08.234Z,18.34
2018-04-28T16:11:37.561Z,18.36
2018-04-28T16:14:06.895Z,18.36
2018-04-28T16:16:36.217Z,18.28
2018-04-28T16:19:06.297Z,18.24
2018-04-28T16:21:35.610Z,18.23
2018-04-28T16:24:04.952Z,18.16
2018-04-28T16:26:35.020Z,18.18
2018-04-28T16:29:04.361Z,18.24
2018-04-28T16:31:34.736Z,18.30
2018-04-28T16:34:04.054Z,18.30
2018-04-28T16:36:33.338Z,18.23
2018-04-28T16:39:03.490Z,18.25
2018-04-28T16:41:32.882Z,18.31
2018-04-28T16:44:02.225Z,18.32
2018-04-28T16:46:32.290Z,18.28
2018-04-28T16:49:01.609Z,18.19
2018-04-28T16:51:30.901Z,18.16
2018-04-28T16:54:00.220Z,18.18
2018-04-28T16:56:29.537Z,18.09
2018-04-28T16:58:58.868Z,18.10
2018-04-28T17:01:28.944Z,18.11
2018-04-28T17:03:58.271Z,17.97
2018-04-28T17:06:27.640Z,17.93
2018-04-28T17:08:57.691Z,17.87
2018-04-28T17:11:26.986Z,17.84
2018-04-28T17:13:56.301Z,17.86
2018-04-28T17:16:26.522Z,17.77
2018-04-28T17:18:55.814Z,17.76
2018-04-28T17:21:25.135Z,17.73
2018-04-28T17:23:55.217Z,17.75
2018-04-28T17:26:24.535Z,17.70
2018-04-28T17:28:53.838Z,17.67
2018-04-28T17:31:23.155Z,17.59
2018-04-28T17:33:53.264Z,17.60
2018-04-28T17:36:22.579Z,17.58
2018-04-28T17:38:51.887Z,17.59
2018-04-28T17:41:21.976Z,17.57
2018-04-28T17:43:51.266Z,17.55
2018-04-28T17:46:20.585Z,17.53
2018-04-28T17:48:49.956Z,17.56
2018-04-28T17:51:19.233Z,17.57
2018-04-28T17:53:48.542Z,17.55
2018-04-28T17:56:17.851Z,17.52
2018-04-28T17:58:47.146Z,17.52
2018-04-28T18:01:16.461Z,17.50
2018-04-28T18:03:45.780Z,17.48
2018-04-28T18:06:15.113Z,17.46
2018-04-28T18:08:44.439Z,17.45
2018-04-28T18:14:24.967Z,17.44
2018-04-28T18:16:55.053Z,17.40
2018-04-28T18:19:24.402Z,17.40
2018-04-28T18:21:54.464Z,17.36
2018-04-28T18:24:23.810Z,17.28
2018-04-28T18:26:53.124Z,17.23
2018-04-28T18:29:23.221Z,17.17
2018-04-28T18:31:52.547Z,17.10
2018-04-28T18:34:22.623Z,17.08
2018-04-28T18:36:51.969Z,17.03
2018-04-28T18:39:22.049Z,17.01
2018-04-28T18:41:52.152Z,16.97
2018-04-28T18:44:21.477Z,16.94
2018-04-28T18:46:50.777Z,16.89
2018-04-28T18:49:20.117Z,16.83
2018-04-28T18:51:50.251Z,16.78
2018-04-28T18:54:19.531Z,16.85
2018-04-28T18:56:48.852Z,16.75
2018-04-28T18:59:18.163Z,16.73
2018-04-28T19:01:47.482Z,16.75
2018-04-28T19:04:16.810Z,16.74
2018-04-28T19:06:46.106Z,16.72
2018-04-28T19:09:15.448Z,16.77
2018-04-28T19:11:44.747Z,16.71
2018-04-28T19:14:14.941Z,16.65
2018-04-28T19:16:44.952Z,16.61
2018-04-28T19:19:14.271Z,16.55
2018-04-28T19:21:43.618Z,16.55
2018-04-28T19:24:13.704Z,16.55
2018-04-28T19:26:43.068Z,16.53
2018-04-28T19:29:12.389Z,16.52
2018-04-28T19:31:41.682Z,16.50
2018-04-28T19:34:10.997Z,16.48
2018-04-28T19:36:40.295Z,16.50
2018-04-28T19:39:09.603Z,16.46
2018-04-28T19:41:39.681Z,16.42
2018-04-28T19:44:08.978Z,16.42
2018-04-28T19:46:38.295Z,16.42
2018-04-28T19:49:07.595Z,16.37
2018-04-28T19:51:36.922Z,16.37
2018-04-28T19:54:06.236Z,16.35
2018-04-28T19:56:35.530Z,16.31
2018-04-28T19:59:04.859Z,16.29
2018-04-28T20:01:34.170Z,16.28
2018-04-28T20:04:04.257Z,16.24
2018-04-28T20:06:33.764Z,16.21
2018-04-28T20:09:03.072Z,16.19
2018-04-28T20:11:32.387Z,16.18
2018-04-28T20:14:01.683Z,16.16
2018-04-28T20:16:31.026Z,16.15
2018-04-28T20:19:00.315Z,16.12
2018-04-28T20:21:30.382Z,16.11
2018-04-28T20:24:17.457Z,16.09
2018-04-28T20:26:46.745Z,16.06
2018-04-28T20:29:16.829Z,16.04
2018-04-28T20:31:46.167Z,16.02
2018-04-28T20:34:15.489Z,16.00
2018-04-28T20:36:45.548Z,15.98
2018-04-28T20:39:14.846Z,15.97
2018-04-28T20:41:44.151Z,15.98
2018-04-28T20:44:13.464Z,15.97
2018-04-28T20:46:42.781Z,15.95
2018-04-28T20:49:12.085Z,15.93
2018-04-28T20:51:41.406Z,15.95
2018-04-28T20:54:12.438Z,15.91
2018-04-28T20:56:41.755Z,15.88
2018-04-28T20:59:11.846Z,15.85
2018-04-28T21:01:41.157Z,15.84
2018-04-28T21:04:11.251Z,15.84
2018-04-28T21:06:40.558Z,15.80
2018-04-28T21:09:09.895Z,15.77
2018-04-28T21:11:39.329Z,15.77
2018-04-28T21:14:08.870Z,15.75
2018-04-28T21:16:38.512Z,15.71
2018-04-28T21:19:07.828Z,15.74
2018-04-28T21:21:37.945Z,15.73
2018-04-28T21:24:08.057Z,15.67
2018-04-28T21:26:37.380Z,15.65
2018-04-28T21:29:07.529Z,15.59
2018-04-28T21:31:36.849Z,15.58
2018-04-28T21:34:07.117Z,15.52
2018-04-28T21:36:37.808Z,15.48
2018-04-28T21:39:07.135Z,15.46
2018-04-28T21:41:37.044Z,15.46
2018-04-28T21:44:06.381Z,15.48
2018-04-28T21:46:35.716Z,15.46
2018-04-28T21:49:05.023Z,15.44
2018-04-28T21:51:34.394Z,15.43
2018-04-28T21:54:04.473Z,15.42
2018-04-28T21:56:33.850Z,15.42
2018-04-28T21:59:03.181Z,15.39
2018-04-28T22:01:32.487Z,15.36
2018-04-28T22:04:01.843Z,15.32
2018-04-28T22:06:31.195Z,15.30
2018-04-28T22:09:00.566Z,15.26
2018-04-28T22:11:29.917Z,15.25
2018-04-28T22:13:59.249Z,15.25
2018-04-28T22:16:29.376Z,15.26
2018-04-28T22:18:59.475Z,15.24
2018-04-28T22:21:29.574Z,15.19
2018-04-28T22:23:59.724Z,15.16
2018-04-28T22:26:29.800Z,15.13
2018-04-28T22:28:59.116Z,15.07
2018-04-28T22:31:28.459Z,15.03
2018-04-28T22:33:58.547Z,14.99
2018-04-28T22:36:27.887Z,14.95
2018-04-28T22:38:57.191Z,14.93
2018-04-28T22:41:26.519Z,14.90
2018-04-28T22:43:55.822Z,14.86
2018-04-28T22:46:25.124Z,14.78
2018-04-28T22:48:54.446Z,14.72
2018-04-28T22:51:23.805Z,14.66
2018-04-28T22:53:53.131Z,14.61
2018-04-28T22:56:22.445Z,14.54
2018-04-28T22:58:51.742Z,14.47
2018-04-28T23:01:21.062Z,14.39
2018-04-28T23:03:50.366Z,14.31
2018-04-28T23:06:19.708Z,14.23
2018-04-28T23:08:49.772Z,14.19
2018-04-28T23:11:19.094Z,14.13
2018-04-28T23:13:48.397Z,14.09
2018-04-28T23:16:17.695Z,14.01
2018-04-28T23:18:47.018Z,13.97
2018-04-28T23:21:16.335Z,13.88
2018-04-28T23:23:46.392Z,13.78
2018-04-28T23:26:15.699Z,13.69
2018-04-28T23:28:45.016Z,13.62
2018-04-28T23:31:14.341Z,13.56
2018-04-28T23:33:43.663Z,13.55
2018-04-28T23:36:13.730Z,13.55
2018-04-28T23:38:43.050Z,13.50
2018-04-28T23:41:12.379Z,13.46
2018-04-28T23:43:42.514Z,13.42
2018-04-28T23:46:12.616Z,13.39
2018-04-28T23:48:42.686Z,13.37
2018-04-28T23:51:12.006Z,13.29
2018-04-28T23:53:41.367Z,13.24
2018-04-28T23:56:11.429Z,13.19
2018-04-28T23:58:40.756Z,13.11
